sensor_id;sensor_type;location;lat;lon;timestamp;P1;durP1;ratioP1;P2;durP2;ratioP2
18159;SDS011;9205;52.032;4.314;2023-12-28T00:02:10;5.07;;;4.73;;
18159;SDS011;9205;52.032;4.314;2023-12-28T00:04:38;5.40;;;4.93;;
18159;SDS011;9205;52.032;4.314;2023-12-28T00:07:06;4.80;;;4.40;;
18159;SDS011;9205;52.032;4.314;2023-12-28T00:09:34;5.83;;;5.50;;
18159;SDS011;9205;52.032;4.314;2023-12-28T00:12:01;5.10;;;4.77;;
18159;SDS011;9205;52.032;4.314;2023-12-28T00:14:29;5.80;;;5.17;;
18159;SDS011;9205;52.032;4.314;2023-12-28T00:16:56;8.70;;;5.33;;
18159;SDS011;9205;52.032;4.314;2023-12-28T00:19:23;4.60;;;4.40;;
18159;SDS011;9205;52.032;4.314;2023-12-28T00:21:50;4.60;;;4.40;;
18159;SDS011;9205;52.032;4.314;2023-12-28T00:24:19;5.23;;;4.93;;
18159;SDS011;9205;52.032;4.314;2023-12-28T00:26:47;6.43;;;5.13;;
18159;SDS011;9205;52.032;4.314;2023-12-28T00:29:14;4.70;;;4.50;;
18159;SDS011;9205;52.032;4.314;2023-12-28T00:31:41;8.50;;;5.27;;
18159;SDS011;9205;52.032;4.314;2023-12-28T00:34:08;4.50;;;4.30;;
18159;SDS011;9205;52.032;4.314;2023-12-28T00:36:36;4.40;;;4.20;;
18159;SDS011;9205;52.032;4.314;2023-12-28T00:39:03;4.73;;;4.53;;
18159;SDS011;9205;52.032;4.314;2023-12-28T00:41:31;4.30;;;4.10;;
18159;SDS011;9205;52.032;4.314;2023-12-28T00:43:58;4.33;;;4.13;;
18159;SDS011;9205;52.032;4.314;2023-12-28T00:46:27;5.10;;;4.60;;
18159;SDS011;9205;52.032;4.314;2023-12-28T00:48:54;4.50;;;4.30;;
18159;SDS011;9205;52.032;4.314;2023-12-28T00:51:21;4.53;;;4.33;;
18159;SDS011;9205;52.032;4.314;2023-12-28T00:53:48;4.43;;;4.23;;
18159;SDS011;9205;52.032;4.314;2023-12-28T00:56:15;4.53;;;4.23;;
18159;SDS011;9205;52.032;4.314;2023-12-28T00:58:44;4.77;;;4.50;;
18159;SDS011;9205;52.032;4.314;2023-12-28T01:01:11;4.30;;;4.10;;
18159;SDS011;9205;52.032;4.314;2023-12-28T01:03:39;4.20;;;4.00;;
18159;SDS011;9205;52.032;4.314;2023-12-28T01:06:06;6.13;;;4.63;;
18159;SDS011;9205;52.032;4.314;2023-12-28T01:08:33;4.83;;;4.60;;
18159;SDS011;9205;52.032;4.314;2023-12-28T01:11:01;10.30;;;5.07;;
18159;SDS011;9205;52.032;4.314;2023-12-28T01:13:28;4.27;;;4.07;;
18159;SDS011;9205;52.032;4.314;2023-12-28T01:15:57;4.30;;;4.10;;
18159;SDS011;9205;52.032;4.314;2023-12-28T01:18:24;4.30;;;4.10;;
18159;SDS011;9205;52.032;4.314;2023-12-28T01:20:51;4.20;;;4.00;;
18159;SDS011;9205;52.032;4.314;2023-12-28T01:23:17;5.03;;;4.63;;
18159;SDS011;9205;52.032;4.314;2023-12-28T01:25:44;4.20;;;4.00;;
18159;SDS011;9205;52.032;4.314;2023-12-28T01:28:12;4.73;;;4.47;;
18159;SDS011;9205;52.032;4.314;2023-12-28T01:30:39;9.87;;;4.37;;
18159;SDS011;9205;52.032;4.314;2023-12-28T01:33:07;4.60;;;4.40;;
18159;SDS011;9205;52.032;4.314;2023-12-28T01:35:35;4.13;;;3.93;;
18159;SDS011;9205;52.032;4.314;2023-12-28T01:38:03;4.80;;;4.47;;
18159;SDS011;9205;52.032;4.314;2023-12-28T01:40:30;5.47;;;4.93;;
18159;SDS011;9205;52.032;4.314;2023-12-28T01:42:57;4.53;;;4.23;;
18159;SDS011;9205;52.032;4.314;2023-12-28T01:45:24;4.83;;;4.27;;
18159;SDS011;9205;52.032;4.314;2023-12-28T01:47:52;4.97;;;4.10;;
18159;SDS011;9205;52.032;4.314;2023-12-28T01:50:23;4.20;;;4.00;;
18159;SDS011;9205;52.032;4.314;2023-12-28T01:52:52;4.50;;;4.30;;
18159;SDS011;9205;52.032;4.314;2023-12-28T01:55:23;4.10;;;3.90;;
18159;SDS011;9205;52.032;4.314;2023-12-28T01:57:52;4.10;;;3.90;;
18159;SDS011;9205;52.032;4.314;2023-12-28T02:00:20;4.47;;;4.27;;
18159;SDS011;9205;52.032;4.314;2023-12-28T02:02:48;4.77;;;4.37;;
18159;SDS011;9205;52.032;4.314;2023-12-28T02:05:18;4.67;;;4.30;;
18159;SDS011;9205;52.032;4.314;2023-12-28T02:07:47;4.20;;;4.00;;
18159;SDS011;9205;52.032;4.314;2023-12-28T02:10:14;4.40;;;4.20;;
18159;SDS011;9205;52.032;4.314;2023-12-28T02:12:41;4.10;;;3.90;;
18159;SDS011;9205;52.032;4.314;2023-12-28T02:15:09;5.10;;;4.70;;
18159;SDS011;9205;52.032;4.314;2023-12-28T02:17:40;4.30;;;4.10;;
18159;SDS011;9205;52.032;4.314;2023-12-28T02:20:14;8.13;;;4.30;;
18159;SDS011;9205;52.032;4.314;2023-12-28T02:22:43;4.27;;;4.07;;
18159;SDS011;9205;52.032;4.314;2023-12-28T02:25:16;4.97;;;4.67;;
18159;SDS011;9205;52.032;4.314;2023-12-28T02:27:43;4.53;;;4.33;;
18159;SDS011;9205;52.032;4.314;2023-12-28T02:30:13;4.63;;;4.33;;
18159;SDS011;9205;52.032;4.314;2023-12-28T02:32:45;4.30;;;4.10;;
18159;SDS011;9205;52.032;4.314;2023-12-28T02:35:23;4.10;;;3.90;;
18159;SDS011;9205;52.032;4.314;2023-12-28T02:37:56;3.80;;;3.60;;
18159;SDS011;9205;52.032;4.314;2023-12-28T02:40:31;4.00;;;3.80;;
18159;SDS011;9205;52.032;4.314;2023-12-28T02:43:03;4.17;;;3.97;;
18159;SDS011;9205;52.032;4.314;2023-12-28T02:45:30;4.50;;;4.20;;
18159;SDS011;9205;52.032;4.314;2023-12-28T02:47:57;4.33;;;4.10;;
18159;SDS011;9205;52.032;4.314;2023-12-28T02:50:25;4.77;;;4.37;;
18159;SDS011;9205;52.032;4.314;2023-12-28T02:52:52;10.80;;;4.70;;
18159;SDS011;9205;52.032;4.314;2023-12-28T02:55:19;4.70;;;4.40;;
18159;SDS011;9205;52.032;4.314;2023-12-28T02:57:49;3.97;;;3.77;;
18159;SDS011;9205;52.032;4.314;2023-12-28T03:00:17;3.73;;;3.53;;
18159;SDS011;9205;52.032;4.314;2023-12-28T03:02:44;9.03;;;3.90;;
18159;SDS011;9205;52.032;4.314;2023-12-28T03:05:11;4.70;;;4.17;;
18159;SDS011;9205;52.032;4.314;2023-12-28T03:07:38;4.20;;;3.90;;
18159;SDS011;9205;52.032;4.314;2023-12-28T03:10:08;4.47;;;4.10;;
18159;SDS011;9205;52.032;4.314;2023-12-28T03:12:37;5.27;;;4.87;;
18159;SDS011;9205;52.032;4.314;2023-12-28T03:15:06;4.00;;;3.80;;
18159;SDS011;9205;52.032;4.314;2023-12-28T03:17:33;4.70;;;4.40;;
18159;SDS011;9205;52.032;4.314;2023-12-28T03:20:02;4.20;;;4.00;;
18159;SDS011;9205;52.032;4.314;2023-12-28T03:22:30;4.10;;;3.90;;
18159;SDS011;9205;52.032;4.314;2023-12-28T03:24:57;4.27;;;4.00;;
18159;SDS011;9205;52.032;4.314;2023-12-28T03:27:24;4.30;;;4.10;;
18159;SDS011;9205;52.032;4.314;2023-12-28T03:29:54;4.20;;;4.00;;
18159;SDS011;9205;52.032;4.314;2023-12-28T03:32:22;4.83;;;4.43;;
18159;SDS011;9205;52.032;4.314;2023-12-28T03:34:50;4.00;;;3.80;;
18159;SDS011;9205;52.032;4.314;2023-12-28T03:37:17;4.70;;;4.37;;
18159;SDS011;9205;52.032;4.314;2023-12-28T03:39:44;4.67;;;3.97;;
18159;SDS011;9205;52.032;4.314;2023-12-28T03:42:12;4.80;;;4.40;;
18159;SDS011;9205;52.032;4.314;2023-12-28T03:44:40;4.90;;;4.47;;
18159;SDS011;9205;52.032;4.314;2023-12-28T03:47:07;4.60;;;4.30;;
18159;SDS011;9205;52.032;4.314;2023-12-28T03:49:35;4.00;;;3.80;;
18159;SDS011;9205;52.032;4.314;2023-12-28T03:52:03;5.60;;;5.30;;
18159;SDS011;9205;52.032;4.314;2023-12-28T03:54:31;5.70;;;5.30;;
18159;SDS011;9205;52.032;4.314;2023-12-28T03:56:58;5.17;;;4.90;;
18159;SDS011;9205;52.032;4.314;2023-12-28T03:59:25;3.50;;;3.40;;
18159;SDS011;9205;52.032;4.314;2023-12-28T04:01:52;4.13;;;3.83;;
18159;SDS011;9205;52.032;4.314;2023-12-28T04:04:19;3.80;;;3.60;;
18159;SDS011;9205;52.032;4.314;2023-12-28T04:06:49;9.97;;;3.83;;
18159;SDS011;9205;52.032;4.314;2023-12-28T04:09:17;3.73;;;3.57;;
18159;SDS011;9205;52.032;4.314;2023-12-28T04:11:45;4.30;;;4.00;;
18159;SDS011;9205;52.032;4.314;2023-12-28T04:14:13;5.23;;;4.80;;
18159;SDS011;9205;52.032;4.314;2023-12-28T04:16:40;4.90;;;4.70;;
18159;SDS011;9205;52.032;4.314;2023-12-28T04:19:07;4.67;;;4.43;;
18159;SDS011;9205;52.032;4.314;2023-12-28T04:21:34;5.13;;;4.93;;
18159;SDS011;9205;52.032;4.314;2023-12-28T04:24:04;4.87;;;4.67;;
18159;SDS011;9205;52.032;4.314;2023-12-28T04:26:32;4.60;;;4.40;;
18159;SDS011;9205;52.032;4.314;2023-12-28T04:29:00;6.07;;;5.43;;
18159;SDS011;9205;52.032;4.314;2023-12-28T04:31:27;3.90;;;3.60;;
18159;SDS011;9205;52.032;4.314;2023-12-28T04:33:54;5.43;;;3.90;;
18159;SDS011;9205;52.032;4.314;2023-12-28T04:36:22;3.30;;;3.20;;
18159;SDS011;9205;52.032;4.314;2023-12-28T04:38:49;5.93;;;3.80;;
18159;SDS011;9205;52.032;4.314;2023-12-28T04:41:18;4.07;;;3.77;;
18159;SDS011;9205;52.032;4.314;2023-12-28T04:43:46;3.90;;;3.70;;
18159;SDS011;9205;52.032;4.314;2023-12-28T04:46:13;3.87;;;3.67;;
18159;SDS011;9205;52.032;4.314;2023-12-28T04:48:40;4.07;;;3.87;;
18159;SDS011;9205;52.032;4.314;2023-12-28T04:51:07;3.50;;;3.30;;
18159;SDS011;9205;52.032;4.314;2023-12-28T04:53:34;3.30;;;3.20;;
18159;SDS011;9205;52.032;4.314;2023-12-28T04:56:02;6.93;;;3.93;;
18159;SDS011;9205;52.032;4.314;2023-12-28T04:58:31;3.90;;;3.60;;
18159;SDS011;9205;52.032;4.314;2023-12-28T05:00:58;14.37;;;3.87;;
18159;SDS011;9205;52.032;4.314;2023-12-28T05:03:27;3.60;;;3.40;;
18159;SDS011;9205;52.032;4.314;2023-12-28T05:05:55;3.60;;;3.40;;
18159;SDS011;9205;52.032;4.314;2023-12-28T05:08:22;6.30;;;5.07;;
18159;SDS011;9205;52.032;4.314;2023-12-28T05:10:49;4.90;;;4.60;;
18159;SDS011;9205;52.032;4.314;2023-12-28T05:13:16;4.40;;;4.20;;
18159;SDS011;9205;52.032;4.314;2023-12-28T05:15:45;4.27;;;4.07;;
18159;SDS011;9205;52.032;4.314;2023-12-28T05:18:12;5.57;;;5.10;;
18159;SDS011;9205;52.032;4.314;2023-12-28T05:20:39;4.73;;;4.30;;
18159;SDS011;9205;52.032;4.314;2023-12-28T05:23:06;4.50;;;4.30;;
18159;SDS011;9205;52.032;4.314;2023-12-28T05:25:33;4.50;;;4.30;;
18159;SDS011;9205;52.032;4.314;2023-12-28T05:28:00;4.97;;;4.67;;
18159;SDS011;9205;52.032;4.314;2023-12-28T05:30:27;4.80;;;4.53;;
18159;SDS011;9205;52.032;4.314;2023-12-28T05:32:56;4.43;;;4.23;;
18159;SDS011;9205;52.032;4.314;2023-12-28T05:35:23;4.47;;;4.27;;
18159;SDS011;9205;52.032;4.314;2023-12-28T05:37:50;4.50;;;4.30;;
18159;SDS011;9205;52.032;4.314;2023-12-28T05:40:17;5.47;;;4.93;;
18159;SDS011;9205;52.032;4.314;2023-12-28T05:42:44;4.50;;;4.10;;
18159;SDS011;9205;52.032;4.314;2023-12-28T05:45:12;3.90;;;3.70;;
18159;SDS011;9205;52.032;4.314;2023-12-28T05:47:39;6.13;;;5.00;;
18159;SDS011;9205;52.032;4.314;2023-12-28T05:50:08;4.10;;;3.90;;
18159;SDS011;9205;52.032;4.314;2023-12-28T05:52:36;5.93;;;4.43;;
18159;SDS011;9205;52.032;4.314;2023-12-28T05:55:03;4.37;;;4.07;;
18159;SDS011;9205;52.032;4.314;2023-12-28T05:57:31;7.00;;;4.90;;
18159;SDS011;9205;52.032;4.314;2023-12-28T05:59:58;6.53;;;4.40;;
18159;SDS011;9205;52.032;4.314;2023-12-28T06:02:25;6.53;;;4.20;;
18159;SDS011;9205;52.032;4.314;2023-12-28T06:04:53;4.00;;;3.80;;
18159;SDS011;9205;52.032;4.314;2023-12-28T06:07:21;4.80;;;4.00;;
18159;SDS011;9205;52.032;4.314;2023-12-28T06:09:48;3.73;;;3.57;;
18159;SDS011;9205;52.032;4.314;2023-12-28T06:12:15;3.93;;;3.73;;
18159;SDS011;9205;52.032;4.314;2023-12-28T06:14:42;4.83;;;3.27;;
18159;SDS011;9205;52.032;4.314;2023-12-28T06:17:09;4.00;;;3.70;;
18159;SDS011;9205;52.032;4.314;2023-12-28T06:19:36;4.47;;;4.10;;
18159;SDS011;9205;52.032;4.314;2023-12-28T06:22:04;8.80;;;4.63;;
18159;SDS011;9205;52.032;4.314;2023-12-28T06:24:32;11.57;;;5.73;;
18159;SDS011;9205;52.032;4.314;2023-12-28T06:27:04;4.63;;;4.23;;
18159;SDS011;9205;52.032;4.314;2023-12-28T06:29:31;4.03;;;3.77;;
18159;SDS011;9205;52.032;4.314;2023-12-28T06:31:58;4.40;;;4.10;;
18159;SDS011;9205;52.032;4.314;2023-12-28T06:34:26;4.57;;;4.27;;
18159;SDS011;9205;52.032;4.314;2023-12-28T06:36:53;4.17;;;3.97;;
18159;SDS011;9205;52.032;4.314;2023-12-28T06:39:20;9.93;;;4.47;;
18159;SDS011;9205;52.032;4.314;2023-12-28T06:41:48;3.80;;;3.60;;
18159;SDS011;9205;52.032;4.314;2023-12-28T06:44:16;3.93;;;3.73;;
18159;SDS011;9205;52.032;4.314;2023-12-28T06:46:43;5.77;;;3.47;;
18159;SDS011;9205;52.032;4.314;2023-12-28T06:49:10;6.30;;;4.90;;
18159;SDS011;9205;52.032;4.314;2023-12-28T06:51:37;4.20;;;4.00;;
18159;SDS011;9205;52.032;4.314;2023-12-28T06:54:04;6.00;;;4.57;;
18159;SDS011;9205;52.032;4.314;2023-12-28T06:56:31;4.23;;;4.03;;
18159;SDS011;9205;52.032;4.314;2023-12-28T06:59:00;3.70;;;3.57;;
18159;SDS011;9205;52.032;4.314;2023-12-28T07:01:27;4.13;;;3.93;;
18159;SDS011;9205;52.032;4.314;2023-12-28T07:03:54;3.70;;;3.50;;
18159;SDS011;9205;52.032;4.314;2023-12-28T07:06:21;7.43;;;4.27;;
18159;SDS011;9205;52.032;4.314;2023-12-28T07:08:48;6.40;;;5.07;;
18159;SDS011;9205;52.032;4.314;2023-12-28T07:11:16;4.10;;;3.90;;
18159;SDS011;9205;52.032;4.314;2023-12-28T07:13:43;4.17;;;3.97;;
18159;SDS011;9205;52.032;4.314;2023-12-28T07:16:11;5.17;;;4.10;;
18159;SDS011;9205;52.032;4.314;2023-12-28T07:18:39;3.70;;;3.40;;
18159;SDS011;9205;52.032;4.314;2023-12-28T07:21:06;3.10;;;3.00;;
18159;SDS011;9205;52.032;4.314;2023-12-28T07:23:34;4.67;;;4.37;;
18159;SDS011;9205;52.032;4.314;2023-12-28T07:26:02;4.00;;;3.57;;
18159;SDS011;9205;52.032;4.314;2023-12-28T07:28:30;3.40;;;3.20;;
18159;SDS011;9205;52.032;4.314;2023-12-28T07:30:57;7.83;;;4.87;;
18159;SDS011;9205;52.032;4.314;2023-12-28T07:33:26;4.00;;;3.80;;
18159;SDS011;9205;52.032;4.314;2023-12-28T07:35:53;4.10;;;3.87;;
18159;SDS011;9205;52.032;4.314;2023-12-28T07:38:20;4.73;;;4.40;;
18159;SDS011;9205;52.032;4.314;2023-12-28T07:40:47;4.23;;;3.93;;
18159;SDS011;9205;52.032;4.314;2023-12-28T07:43:14;9.50;;;3.70;;
18159;SDS011;9205;52.032;4.314;2023-12-28T07:45:42;4.27;;;3.97;;
18159;SDS011;9205;52.032;4.314;2023-12-28T07:48:09;2.90;;;2.80;;
18159;SDS011;9205;52.032;4.314;2023-12-28T07:50:37;8.40;;;3.93;;
18159;SDS011;9205;52.032;4.314;2023-12-28T07:53:04;23.67;;;4.20;;
18159;SDS011;9205;52.032;4.314;2023-12-28T07:55:32;6.47;;;4.33;;
18159;SDS011;9205;52.032;4.314;2023-12-28T07:57:59;4.40;;;4.00;;
18159;SDS011;9205;52.032;4.314;2023-12-28T08:00:26;4.83;;;4.43;;
18159;SDS011;9205;52.032;4.314;2023-12-28T08:02:53;4.20;;;3.90;;
18159;SDS011;9205;52.032;4.314;2023-12-28T08:05:20;14.10;;;4.17;;
18159;SDS011;9205;52.032;4.314;2023-12-28T08:07:49;9.87;;;3.43;;
18159;SDS011;9205;52.032;4.314;2023-12-28T08:10:16;4.40;;;4.07;;
18159;SDS011;9205;52.032;4.314;2023-12-28T08:12:43;4.00;;;3.80;;
18159;SDS011;9205;52.032;4.314;2023-12-28T08:15:10;4.17;;;3.97;;
18159;SDS011;9205;52.032;4.314;2023-12-28T08:17:37;4.77;;;4.47;;
18159;SDS011;9205;52.032;4.314;2023-12-28T08:20:05;4.10;;;3.90;;
18159;SDS011;9205;52.032;4.314;2023-12-28T08:22:33;4.00;;;3.80;;
18159;SDS011;9205;52.032;4.314;2023-12-28T08:25:02;3.10;;;3.00;;
18159;SDS011;9205;52.032;4.314;2023-12-28T08:27:30;11.30;;;4.23;;
18159;SDS011;9205;52.032;4.314;2023-12-28T08:29:57;4.53;;;4.23;;
18159;SDS011;9205;52.032;4.314;2023-12-28T08:32:24;3.90;;;3.70;;
18159;SDS011;9205;52.032;4.314;2023-12-28T08:34:51;4.10;;;3.90;;
18159;SDS011;9205;52.032;4.314;2023-12-28T08:37:18;3.20;;;3.10;;
18159;SDS011;9205;52.032;4.314;2023-12-28T08:39:46;8.37;;;4.03;;
18159;SDS011;9205;52.032;4.314;2023-12-28T08:42:15;4.60;;;4.27;;
18159;SDS011;9205;52.032;4.314;2023-12-28T08:44:42;3.67;;;3.43;;
18159;SDS011;9205;52.032;4.314;2023-12-28T08:47:09;4.03;;;3.63;;
18159;SDS011;9205;52.032;4.314;2023-12-28T08:49:36;3.60;;;3.40;;
18159;SDS011;9205;52.032;4.314;2023-12-28T08:52:03;4.37;;;4.00;;
18159;SDS011;9205;52.032;4.314;2023-12-28T08:54:31;9.63;;;3.80;;
18159;SDS011;9205;52.032;4.314;2023-12-28T08:56:58;3.80;;;3.60;;
18159;SDS011;9205;52.032;4.314;2023-12-28T08:59:27;3.43;;;3.23;;
18159;SDS011;9205;52.032;4.314;2023-12-28T09:01:54;3.40;;;3.30;;
18159;SDS011;9205;52.032;4.314;2023-12-28T09:04:21;3.70;;;3.40;;
18159;SDS011;9205;52.032;4.314;2023-12-28T09:06:48;3.50;;;3.30;;
18159;SDS011;9205;52.032;4.314;2023-12-28T09:09:16;3.20;;;3.10;;
18159;SDS011;9205;52.032;4.314;2023-12-28T09:11:43;3.90;;;3.60;;
18159;SDS011;9205;52.032;4.314;2023-12-28T09:14:10;3.67;;;3.47;;
18159;SDS011;9205;52.032;4.314;2023-12-28T09:16:38;3.87;;;3.60;;
18159;SDS011;9205;52.032;4.314;2023-12-28T09:19:07;3.20;;;3.00;;
18159;SDS011;9205;52.032;4.314;2023-12-28T09:21:34;8.27;;;3.50;;
18159;SDS011;9205;52.032;4.314;2023-12-28T09:24:01;3.53;;;3.23;;
18159;SDS011;9205;52.032;4.314;2023-12-28T09:26:29;5.50;;;4.60;;
18159;SDS011;9205;52.032;4.314;2023-12-28T09:28:57;4.27;;;3.97;;
18159;SDS011;9205;52.032;4.314;2023-12-28T09:31:27;8.47;;;4.33;;
18159;SDS011;9205;52.032;4.314;2023-12-28T09:33:57;4.10;;;3.87;;
18159;SDS011;9205;52.032;4.314;2023-12-28T09:36:24;3.53;;;3.33;;
18159;SDS011;9205;52.032;4.314;2023-12-28T09:38:51;3.37;;;3.27;;
18159;SDS011;9205;52.032;4.314;2023-12-28T09:41:19;3.80;;;3.60;;
18159;SDS011;9205;52.032;4.314;2023-12-28T09:43:53;10.10;;;4.23;;
18159;SDS011;9205;52.032;4.314;2023-12-28T09:46:24;4.73;;;3.43;;
18159;SDS011;9205;52.032;4.314;2023-12-28T09:48:52;6.20;;;3.60;;
18159;SDS011;9205;52.032;4.314;2023-12-28T09:51:22;7.07;;;4.20;;
18159;SDS011;9205;52.032;4.314;2023-12-28T09:53:50;5.63;;;3.57;;
18159;SDS011;9205;52.032;4.314;2023-12-28T09:56:18;7.73;;;3.67;;
18159;SDS011;9205;52.032;4.314;2023-12-28T09:58:45;3.10;;;3.00;;
18159;SDS011;9205;52.032;4.314;2023-12-28T10:01:16;4.53;;;4.10;;
18159;SDS011;9205;52.032;4.314;2023-12-28T10:03:44;4.07;;;3.70;;
18159;SDS011;9205;52.032;4.314;2023-12-28T10:06:11;6.57;;;3.90;;
18159;SDS011;9205;52.032;4.314;2023-12-28T10:08:46;3.60;;;3.40;;
18159;SDS011;9205;52.032;4.314;2023-12-28T10:11:14;4.70;;;3.50;;
18159;SDS011;9205;52.032;4.314;2023-12-28T10:13:43;3.83;;;3.60;;
18159;SDS011;9205;52.032;4.314;2023-12-28T10:16:11;4.37;;;3.60;;
18159;SDS011;9205;52.032;4.314;2023-12-28T10:18:40;3.23;;;3.13;;
18159;SDS011;9205;52.032;4.314;2023-12-28T10:21:08;4.90;;;3.60;;
18159;SDS011;9205;52.032;4.314;2023-12-28T10:23:36;3.40;;;3.20;;
18159;SDS011;9205;52.032;4.314;2023-12-28T10:26:08;4.27;;;3.93;;
18159;SDS011;9205;52.032;4.314;2023-12-28T10:28:35;12.33;;;4.20;;
18159;SDS011;9205;52.032;4.314;2023-12-28T10:31:03;15.40;;;3.53;;
18159;SDS011;9205;52.032;4.314;2023-12-28T10:33:33;4.10;;;3.83;;
18159;SDS011;9205;52.032;4.314;2023-12-28T10:36:02;7.00;;;4.03;;
18159;SDS011;9205;52.032;4.314;2023-12-28T10:38:33;5.40;;;3.67;;
18159;SDS011;9205;52.032;4.314;2023-12-28T10:41:03;10.70;;;3.03;;
18159;SDS011;9205;52.032;4.314;2023-12-28T10:43:35;3.50;;;3.23;;
18159;SDS011;9205;52.032;4.314;2023-12-28T10:46:14;3.60;;;3.40;;
18159;SDS011;9205;52.032;4.314;2023-12-28T10:48:53;4.40;;;3.67;;
18159;SDS011;9205;52.032;4.314;2023-12-28T10:51:27;3.53;;;3.33;;
18159;SDS011;9205;52.032;4.314;2023-12-28T10:53:58;7.33;;;3.93;;
18159;SDS011;9205;52.032;4.314;2023-12-28T10:56:56;22.33;;;4.30;;
18159;SDS011;9205;52.032;4.314;2023-12-28T10:59:35;3.77;;;3.37;;
18159;SDS011;9205;52.032;4.314;2023-12-28T11:02:25;3.43;;;3.03;;
18159;SDS011;9205;52.032;4.314;2023-12-28T11:04:59;8.30;;;3.20;;
18159;SDS011;9205;52.032;4.314;2023-12-28T11:07:30;3.40;;;2.90;;
18159;SDS011;9205;52.032;4.314;2023-12-28T11:09:58;3.30;;;3.10;;
18159;SDS011;9205;52.032;4.314;2023-12-28T11:12:31;23.80;;;3.67;;
18159;SDS011;9205;52.032;4.314;2023-12-28T11:15:00;9.80;;;3.67;;
18159;SDS011;9205;52.032;4.314;2023-12-28T11:17:30;8.30;;;4.10;;
18159;SDS011;9205;52.032;4.314;2023-12-28T11:19:58;3.20;;;3.10;;
18159;SDS011;9205;52.032;4.314;2023-12-28T11:22:26;12.33;;;3.80;;
18159;SDS011;9205;52.032;4.314;2023-12-28T11:24:55;21.60;;;3.47;;
18159;SDS011;9205;52.032;4.314;2023-12-28T11:27:23;3.67;;;3.00;;
18159;SDS011;9205;52.032;4.314;2023-12-28T11:29:53;6.03;;;3.13;;
18159;SDS011;9205;52.032;4.314;2023-12-28T11:32:23;2.90;;;2.80;;
18159;SDS011;9205;52.032;4.314;2023-12-28T11:34:56;8.13;;;3.03;;
18159;SDS011;9205;52.032;4.314;2023-12-28T11:37:24;3.37;;;3.00;;
18159;SDS011;9205;52.032;4.314;2023-12-28T11:39:56;3.00;;;2.90;;
18159;SDS011;9205;52.032;4.314;2023-12-28T11:42:25;3.23;;;3.03;;
18159;SDS011;9205;52.032;4.314;2023-12-28T11:44:54;5.70;;;3.20;;
18159;SDS011;9205;52.032;4.314;2023-12-28T11:47:22;5.03;;;3.70;;
18159;SDS011;9205;52.032;4.314;2023-12-28T11:49:52;2.90;;;2.80;;
18159;SDS011;9205;52.032;4.314;2023-12-28T11:52:23;3.73;;;3.53;;
18159;SDS011;9205;52.032;4.314;2023-12-28T11:54:53;3.53;;;3.23;;
18159;SDS011;9205;52.032;4.314;2023-12-28T11:57:21;3.37;;;3.07;;
18159;SDS011;9205;52.032;4.314;2023-12-28T11:59:51;3.77;;;3.23;;
18159;SDS011;9205;52.032;4.314;2023-12-28T12:02:22;3.30;;;3.10;;
18159;SDS011;9205;52.032;4.314;2023-12-28T12:04:50;12.03;;;4.30;;
18159;SDS011;9205;52.032;4.314;2023-12-28T12:07:17;23.27;;;4.07;;
18159;SDS011;9205;52.032;4.314;2023-12-28T12:09:44;4.17;;;3.30;;
18159;SDS011;9205;52.032;4.314;2023-12-28T12:12:12;8.10;;;3.73;;
18159;SDS011;9205;52.032;4.314;2023-12-28T12:14:42;3.03;;;2.90;;
18159;SDS011;9205;52.032;4.314;2023-12-28T12:17:10;3.57;;;3.27;;
18159;SDS011;9205;52.032;4.314;2023-12-28T12:19:38;3.57;;;3.27;;
18159;SDS011;9205;52.032;4.314;2023-12-28T12:22:05;3.10;;;2.90;;
18159;SDS011;9205;52.032;4.314;2023-12-28T12:24:32;2.77;;;2.60;;
18159;SDS011;9205;52.032;4.314;2023-12-28T12:27:02;4.33;;;2.80;;
18159;SDS011;9205;52.032;4.314;2023-12-28T12:29:29;6.13;;;2.77;;
18159;SDS011;9205;52.032;4.314;2023-12-28T12:31:57;2.83;;;2.70;;
18159;SDS011;9205;52.032;4.314;2023-12-28T12:34:28;3.00;;;2.83;;
18159;SDS011;9205;52.032;4.314;2023-12-28T12:36:55;2.50;;;2.40;;
18159;SDS011;9205;52.032;4.314;2023-12-28T12:39:24;2.87;;;2.73;;
18159;SDS011;9205;52.032;4.314;2023-12-28T12:41:51;3.93;;;2.60;;
18159;SDS011;9205;52.032;4.314;2023-12-28T12:44:22;2.97;;;2.70;;
18159;SDS011;9205;52.032;4.314;2023-12-28T12:46:55;3.30;;;2.93;;
18159;SDS011;9205;52.032;4.314;2023-12-28T12:49:24;4.50;;;2.63;;
18159;SDS011;9205;52.032;4.314;2023-12-28T12:51:54;3.77;;;3.30;;
18159;SDS011;9205;52.032;4.314;2023-12-28T12:54:22;2.63;;;2.53;;
18159;SDS011;9205;52.032;4.314;2023-12-28T12:56:49;5.87;;;3.33;;
18159;SDS011;9205;52.032;4.314;2023-12-28T12:59:17;5.40;;;3.60;;
18159;SDS011;9205;52.032;4.314;2023-12-28T13:01:45;2.70;;;2.50;;
18159;SDS011;9205;52.032;4.314;2023-12-28T13:04:13;2.50;;;2.40;;
18159;SDS011;9205;52.032;4.314;2023-12-28T13:06:42;8.70;;;3.03;;
18159;SDS011;9205;52.032;4.314;2023-12-28T13:09:10;2.63;;;2.53;;
18159;SDS011;9205;52.032;4.314;2023-12-28T13:11:38;7.40;;;2.97;;
18159;SDS011;9205;52.032;4.314;2023-12-28T13:14:05;3.00;;;2.90;;
18159;SDS011;9205;52.032;4.314;2023-12-28T13:16:34;3.27;;;3.17;;
18159;SDS011;9205;52.032;4.314;2023-12-28T13:19:02;4.63;;;4.23;;
18159;SDS011;9205;52.032;4.314;2023-12-28T13:21:29;4.37;;;4.17;;
18159;SDS011;9205;52.032;4.314;2023-12-28T13:23:56;5.33;;;5.03;;
18159;SDS011;9205;52.032;4.314;2023-12-28T13:26:28;8.80;;;4.17;;
18159;SDS011;9205;52.032;4.314;2023-12-28T13:28:55;3.50;;;3.30;;
18159;SDS011;9205;52.032;4.314;2023-12-28T13:31:22;2.70;;;2.60;;
18159;SDS011;9205;52.032;4.314;2023-12-28T13:33:51;2.83;;;2.73;;
18159;SDS011;9205;52.032;4.314;2023-12-28T13:36:18;3.47;;;3.17;;
18159;SDS011;9205;52.032;4.314;2023-12-28T13:38:45;3.13;;;3.00;;
18159;SDS011;9205;52.032;4.314;2023-12-28T13:41:13;5.63;;;3.17;;
18159;SDS011;9205;52.032;4.314;2023-12-28T13:43:41;3.10;;;3.00;;
18159;SDS011;9205;52.032;4.314;2023-12-28T13:46:08;2.97;;;2.83;;
18159;SDS011;9205;52.032;4.314;2023-12-28T13:48:35;3.17;;;3.00;;
18159;SDS011;9205;52.032;4.314;2023-12-28T13:51:04;6.97;;;4.17;;
18159;SDS011;9205;52.032;4.314;2023-12-28T13:53:31;3.70;;;3.43;;
18159;SDS011;9205;52.032;4.314;2023-12-28T13:56:00;3.43;;;3.23;;
18159;SDS011;9205;52.032;4.314;2023-12-28T13:58:29;4.60;;;3.60;;
18159;SDS011;9205;52.032;4.314;2023-12-28T14:00:57;5.97;;;3.70;;
18159;SDS011;9205;52.032;4.314;2023-12-28T14:03:24;3.63;;;3.33;;
18159;SDS011;9205;52.032;4.314;2023-12-28T14:05:52;3.50;;;3.30;;
18159;SDS011;9205;52.032;4.314;2023-12-28T14:08:19;3.50;;;3.33;;
18159;SDS011;9205;52.032;4.314;2023-12-28T14:10:46;6.87;;;3.80;;
18159;SDS011;9205;52.032;4.314;2023-12-28T14:13:13;3.07;;;2.97;;
18159;SDS011;9205;52.032;4.314;2023-12-28T14:15:40;3.50;;;3.23;;
18159;SDS011;9205;52.032;4.314;2023-12-28T14:18:09;3.03;;;2.93;;
18159;SDS011;9205;52.032;4.314;2023-12-28T14:20:36;3.40;;;3.20;;
18159;SDS011;9205;52.032;4.314;2023-12-28T14:23:03;6.70;;;3.83;;
18159;SDS011;9205;52.032;4.314;2023-12-28T14:25:31;3.60;;;3.40;;
18159;SDS011;9205;52.032;4.314;2023-12-28T14:27:59;7.80;;;4.20;;
18159;SDS011;9205;52.032;4.314;2023-12-28T14:30:27;5.97;;;4.03;;
18159;SDS011;9205;52.032;4.314;2023-12-28T14:32:56;3.37;;;3.20;;
18159;SDS011;9205;52.032;4.314;2023-12-28T14:35:25;9.77;;;3.80;;
18159;SDS011;9205;52.032;4.314;2023-12-28T14:37:53;3.70;;;3.50;;
18159;SDS011;9205;52.032;4.314;2023-12-28T14:40:20;3.70;;;3.50;;
18159;SDS011;9205;52.032;4.314;2023-12-28T14:42:47;3.50;;;3.30;;
18159;SDS011;9205;52.032;4.314;2023-12-28T14:45:14;3.70;;;3.50;;
18159;SDS011;9205;52.032;4.314;2023-12-28T14:47:43;8.07;;;3.73;;
18159;SDS011;9205;52.032;4.314;2023-12-28T14:50:10;3.27;;;3.07;;
18159;SDS011;9205;52.032;4.314;2023-12-28T14:52:39;14.87;;;3.90;;
18159;SDS011;9205;52.032;4.314;2023-12-28T14:55:07;3.30;;;3.10;;
18159;SDS011;9205;52.032;4.314;2023-12-28T14:57:35;3.33;;;3.10;;
18159;SDS011;9205;52.032;4.314;2023-12-28T15:00:02;3.60;;;3.40;;
18159;SDS011;9205;52.032;4.314;2023-12-28T15:02:30;6.03;;;3.57;;
18159;SDS011;9205;52.032;4.314;2023-12-28T15:04:58;2.80;;;2.70;;
18159;SDS011;9205;52.032;4.314;2023-12-28T15:07:25;2.90;;;2.80;;